sensor_id;sensor_type;location;lat;lon;timestamp;P1;durP1;ratioP1;P2;durP2;ratioP2
7195;SDS011;3639;51.308;5.624;2023-04-23T00:01:12;35.70;;;18.23;;
7195;SDS011;3639;51.308;5.624;2023-04-23T00:03:41;32.47;;;18.13;;
7195;SDS011;3639;51.308;5.624;2023-04-23T00:06:07;28.67;;;17.03;;
7195;SDS011;3639;51.308;5.624;2023-04-23T00:08:40;31.83;;;17.37;;
7195;SDS011;3639;51.308;5.624;2023-04-23T00:11:06;33.07;;;18.73;;
7195;SDS011;3639;51.308;5.624;2023-04-23T00:13:33;32.47;;;18.40;;
7195;SDS011;3639;51.308;5.624;2023-04-23T00:15:59;30.97;;;17.70;;
7195;SDS011;3639;51.308;5.624;2023-04-23T00:18:25;29.97;;;18.03;;
7195;SDS011;3639;51.308;5.624;2023-04-23T00:20:50;35.43;;;18.30;;
7195;SDS011;3639;51.308;5.624;2023-04-23T00:23:16;34.07;;;18.80;;
7195;SDS011;3639;51.308;5.624;2023-04-23T00:25:41;32.50;;;18.50;;
7195;SDS011;3639;51.308;5.624;2023-04-23T00:28:07;30.73;;;17.37;;
7195;SDS011;3639;51.308;5.624;2023-04-23T00:30:33;31.50;;;17.03;;
7195;SDS011;3639;51.308;5.624;2023-04-23T00:32:58;30.37;;;16.27;;
7195;SDS011;3639;51.308;5.624;2023-04-23T00:35:24;35.17;;;17.60;;
7195;SDS011;3639;51.308;5.624;2023-04-23T00:37:50;32.07;;;17.60;;
7195;SDS011;3639;51.308;5.624;2023-04-23T00:40:15;31.37;;;17.40;;
7195;SDS011;3639;51.308;5.624;2023-04-23T00:42:41;31.77;;;18.07;;
7195;SDS011;3639;51.308;5.624;2023-04-23T00:45:08;32.97;;;16.87;;
7195;SDS011;3639;51.308;5.624;2023-04-23T00:47:34;31.80;;;17.53;;
7195;SDS011;3639;51.308;5.624;2023-04-23T00:50:00;33.90;;;19.40;;
7195;SDS011;3639;51.308;5.624;2023-04-23T00:52:27;33.10;;;17.53;;
7195;SDS011;3639;51.308;5.624;2023-04-23T00:54:53;35.07;;;17.37;;
7195;SDS011;3639;51.308;5.624;2023-04-23T00:57:19;31.47;;;17.57;;
7195;SDS011;3639;51.308;5.624;2023-04-23T00:59:46;29.53;;;17.33;;
7195;SDS011;3639;51.308;5.624;2023-04-23T01:02:12;31.20;;;16.97;;
7195;SDS011;3639;51.308;5.624;2023-04-23T01:04:38;31.90;;;17.73;;
7195;SDS011;3639;51.308;5.624;2023-04-23T01:07:07;36.90;;;18.03;;
7195;SDS011;3639;51.308;5.624;2023-04-23T01:09:33;29.10;;;17.77;;
7195;SDS011;3639;51.308;5.624;2023-04-23T01:11:59;33.17;;;17.83;;
7195;SDS011;3639;51.308;5.624;2023-04-23T01:14:26;32.33;;;16.93;;
7195;SDS011;3639;51.308;5.624;2023-04-23T01:16:52;34.27;;;18.87;;
7195;SDS011;3639;51.308;5.624;2023-04-23T01:19:18;29.33;;;16.53;;
7195;SDS011;3639;51.308;5.624;2023-04-23T01:21:44;31.93;;;17.90;;
7195;SDS011;3639;51.308;5.624;2023-04-23T01:24:10;32.20;;;17.90;;
7195;SDS011;3639;51.308;5.624;2023-04-23T01:26:36;32.33;;;19.10;;
7195;SDS011;3639;51.308;5.624;2023-04-23T01:29:02;32.93;;;18.20;;
7195;SDS011;3639;51.308;5.624;2023-04-23T01:31:28;35.03;;;19.33;;
7195;SDS011;3639;51.308;5.624;2023-04-23T01:33:55;33.60;;;19.10;;
7195;SDS011;3639;51.308;5.624;2023-04-23T01:36:22;34.10;;;18.63;;
7195;SDS011;3639;51.308;5.624;2023-04-23T01:38:48;36.07;;;18.07;;
7195;SDS011;3639;51.308;5.624;2023-04-23T01:41:14;35.37;;;18.83;;
7195;SDS011;3639;51.308;5.624;2023-04-23T01:43:42;32.93;;;19.03;;
7195;SDS011;3639;51.308;5.624;2023-04-23T01:46:09;37.40;;;19.57;;
7195;SDS011;3639;51.308;5.624;2023-04-23T01:48:36;36.50;;;20.20;;
7195;SDS011;3639;51.308;5.624;2023-04-23T01:51:02;39.27;;;20.37;;
7195;SDS011;3639;51.308;5.624;2023-04-23T01:53:27;32.67;;;18.90;;
7195;SDS011;3639;51.308;5.624;2023-04-23T01:55:53;32.67;;;19.30;;
7195;SDS011;3639;51.308;5.624;2023-04-23T01:58:20;39.07;;;20.60;;
7195;SDS011;3639;51.308;5.624;2023-04-23T02:00:47;35.87;;;19.63;;
7195;SDS011;3639;51.308;5.624;2023-04-23T02:03:13;35.73;;;18.83;;
7195;SDS011;3639;51.308;5.624;2023-04-23T02:05:40;35.40;;;19.53;;
7195;SDS011;3639;51.308;5.624;2023-04-23T02:08:06;33.43;;;19.30;;
7195;SDS011;3639;51.308;5.624;2023-04-23T02:10:32;35.07;;;19.13;;
7195;SDS011;3639;51.308;5.624;2023-04-23T02:12:58;36.17;;;20.67;;
7195;SDS011;3639;51.308;5.624;2023-04-23T02:15:25;36.23;;;18.87;;
7195;SDS011;3639;51.308;5.624;2023-04-23T02:17:51;38.87;;;20.50;;
7195;SDS011;3639;51.308;5.624;2023-04-23T02:20:17;38.70;;;20.77;;
7195;SDS011;3639;51.308;5.624;2023-04-23T02:22:44;32.90;;;18.93;;
7195;SDS011;3639;51.308;5.624;2023-04-23T02:25:10;35.37;;;19.13;;
7195;SDS011;3639;51.308;5.624;2023-04-23T02:27:39;35.87;;;18.87;;
7195;SDS011;3639;51.308;5.624;2023-04-23T02:30:05;34.57;;;20.77;;
7195;SDS011;3639;51.308;5.624;2023-04-23T02:32:32;38.07;;;20.00;;
7195;SDS011;3639;51.308;5.624;2023-04-23T02:34:58;32.73;;;18.63;;
7195;SDS011;3639;51.308;5.624;2023-04-23T02:37:26;35.93;;;19.77;;
7195;SDS011;3639;51.308;5.624;2023-04-23T02:39:51;34.67;;;19.50;;
7195;SDS011;3639;51.308;5.624;2023-04-23T02:42:17;37.47;;;19.07;;
7195;SDS011;3639;51.308;5.624;2023-04-23T02:44:43;39.00;;;20.53;;
7195;SDS011;3639;51.308;5.624;2023-04-23T02:47:08;33.60;;;19.13;;
7195;SDS011;3639;51.308;5.624;2023-04-23T02:49:34;39.10;;;20.30;;
7195;SDS011;3639;51.308;5.624;2023-04-23T02:52:00;38.00;;;19.83;;
7195;SDS011;3639;51.308;5.624;2023-04-23T02:54:26;32.83;;;18.27;;
7195;SDS011;3639;51.308;5.624;2023-04-23T02:56:52;31.30;;;17.67;;
7195;SDS011;3639;51.308;5.624;2023-04-23T02:59:18;31.80;;;19.17;;
7195;SDS011;3639;51.308;5.624;2023-04-23T03:01:43;32.27;;;18.80;;
7195;SDS011;3639;51.308;5.624;2023-04-23T03:04:09;37.67;;;19.77;;
7195;SDS011;3639;51.308;5.624;2023-04-23T03:06:36;36.50;;;18.90;;
7195;SDS011;3639;51.308;5.624;2023-04-23T03:09:01;32.30;;;17.70;;
7195;SDS011;3639;51.308;5.624;2023-04-23T03:11:28;33.30;;;19.37;;
7195;SDS011;3639;51.308;5.624;2023-04-23T03:13:54;31.70;;;17.43;;
7195;SDS011;3639;51.308;5.624;2023-04-23T03:16:20;33.43;;;18.40;;
7195;SDS011;3639;51.308;5.624;2023-04-23T03:18:46;34.30;;;17.57;;
7195;SDS011;3639;51.308;5.624;2023-04-23T03:21:11;31.63;;;18.40;;
7195;SDS011;3639;51.308;5.624;2023-04-23T03:23:37;30.10;;;17.07;;
7195;SDS011;3639;51.308;5.624;2023-04-23T03:26:03;30.47;;;17.53;;
7195;SDS011;3639;51.308;5.624;2023-04-23T03:28:29;34.93;;;19.00;;
7195;SDS011;3639;51.308;5.624;2023-04-23T03:30:55;31.77;;;17.40;;
7195;SDS011;3639;51.308;5.624;2023-04-23T03:33:20;33.57;;;18.37;;
7195;SDS011;3639;51.308;5.624;2023-04-23T03:35:46;38.23;;;18.63;;
7195;SDS011;3639;51.308;5.624;2023-04-23T03:38:12;35.50;;;18.50;;
7195;SDS011;3639;51.308;5.624;2023-04-23T03:40:38;33.47;;;19.03;;
7195;SDS011;3639;51.308;5.624;2023-04-23T03:43:03;36.53;;;18.53;;
7195;SDS011;3639;51.308;5.624;2023-04-23T03:45:29;28.93;;;16.77;;
7195;SDS011;3639;51.308;5.624;2023-04-23T03:47:55;34.93;;;19.23;;
7195;SDS011;3639;51.308;5.624;2023-04-23T03:50:20;35.77;;;18.40;;
7195;SDS011;3639;51.308;5.624;2023-04-23T03:52:46;33.03;;;19.10;;
7195;SDS011;3639;51.308;5.624;2023-04-23T03:55:12;32.93;;;18.43;;
7195;SDS011;3639;51.308;5.624;2023-04-23T03:57:37;30.37;;;18.07;;
7195;SDS011;3639;51.308;5.624;2023-04-23T04:00:03;33.30;;;18.47;;
7195;SDS011;3639;51.308;5.624;2023-04-23T04:02:35;32.17;;;17.43;;
7195;SDS011;3639;51.308;5.624;2023-04-23T04:05:02;33.37;;;18.03;;
7195;SDS011;3639;51.308;5.624;2023-04-23T04:07:27;33.50;;;18.50;;
7195;SDS011;3639;51.308;5.624;2023-04-23T04:09:53;31.50;;;17.20;;
7195;SDS011;3639;51.308;5.624;2023-04-23T04:12:19;34.63;;;16.23;;
7195;SDS011;3639;51.308;5.624;2023-04-23T04:14:45;33.07;;;18.07;;
7195;SDS011;3639;51.308;5.624;2023-04-23T04:17:10;30.13;;;16.70;;
7195;SDS011;3639;51.308;5.624;2023-04-23T04:19:36;28.70;;;17.27;;
7195;SDS011;3639;51.308;5.624;2023-04-23T04:22:02;27.30;;;15.73;;
7195;SDS011;3639;51.308;5.624;2023-04-23T04:24:28;31.80;;;17.23;;
7195;SDS011;3639;51.308;5.624;2023-04-23T04:26:57;28.17;;;16.27;;
7195;SDS011;3639;51.308;5.624;2023-04-23T04:29:24;27.27;;;16.20;;
7195;SDS011;3639;51.308;5.624;2023-04-23T04:31:50;29.10;;;16.33;;
7195;SDS011;3639;51.308;5.624;2023-04-23T04:34:17;27.77;;;16.37;;
7195;SDS011;3639;51.308;5.624;2023-04-23T04:36:42;31.00;;;17.37;;
7195;SDS011;3639;51.308;5.624;2023-04-23T04:39:08;27.80;;;16.37;;
7195;SDS011;3639;51.308;5.624;2023-04-23T04:41:35;28.93;;;16.70;;
7195;SDS011;3639;51.308;5.624;2023-04-23T04:44:01;27.60;;;15.67;;
7195;SDS011;3639;51.308;5.624;2023-04-23T04:46:26;26.23;;;15.70;;
7195;SDS011;3639;51.308;5.624;2023-04-23T04:48:53;28.23;;;16.57;;
7195;SDS011;3639;51.308;5.624;2023-04-23T04:51:19;25.53;;;15.63;;
7195;SDS011;3639;51.308;5.624;2023-04-23T04:53:45;28.67;;;15.37;;
7195;SDS011;3639;51.308;5.624;2023-04-23T04:56:11;24.10;;;14.47;;
7195;SDS011;3639;51.308;5.624;2023-04-23T04:58:36;24.37;;;15.10;;
7195;SDS011;3639;51.308;5.624;2023-04-23T05:01:02;23.43;;;15.90;;
7195;SDS011;3639;51.308;5.624;2023-04-23T05:03:29;24.70;;;14.23;;
7195;SDS011;3639;51.308;5.624;2023-04-23T05:05:55;26.47;;;15.77;;
7195;SDS011;3639;51.308;5.624;2023-04-23T05:08:22;25.63;;;14.63;;
7195;SDS011;3639;51.308;5.624;2023-04-23T05:10:48;23.73;;;14.50;;
7195;SDS011;3639;51.308;5.624;2023-04-23T05:13:15;21.17;;;13.87;;
7195;SDS011;3639;51.308;5.624;2023-04-23T05:15:41;26.63;;;15.07;;
7195;SDS011;3639;51.308;5.624;2023-04-23T05:18:08;23.87;;;13.97;;
7195;SDS011;3639;51.308;5.624;2023-04-23T05:20:34;24.00;;;14.33;;
7195;SDS011;3639;51.308;5.624;2023-04-23T05:23:01;24.57;;;15.37;;
7195;SDS011;3639;51.308;5.624;2023-04-23T05:25:30;24.27;;;15.40;;
7195;SDS011;3639;51.308;5.624;2023-04-23T05:27:58;26.67;;;15.63;;
7195;SDS011;3639;51.308;5.624;2023-04-23T05:30:24;25.80;;;14.80;;
7195;SDS011;3639;51.308;5.624;2023-04-23T05:32:49;24.73;;;14.90;;
7195;SDS011;3639;51.308;5.624;2023-04-23T05:35:15;25.73;;;14.03;;
7195;SDS011;3639;51.308;5.624;2023-04-23T05:37:41;23.77;;;13.70;;
7195;SDS011;3639;51.308;5.624;2023-04-23T05:40:06;24.73;;;14.03;;
7195;SDS011;3639;51.308;5.624;2023-04-23T05:42:33;23.57;;;13.27;;
7195;SDS011;3639;51.308;5.624;2023-04-23T05:45:00;20.83;;;12.43;;
7195;SDS011;3639;51.308;5.624;2023-04-23T05:47:25;19.77;;;12.43;;
7195;SDS011;3639;51.308;5.624;2023-04-23T05:49:51;22.60;;;13.60;;
7195;SDS011;3639;51.308;5.624;2023-04-23T05:52:17;21.17;;;12.60;;
7195;SDS011;3639;51.308;5.624;2023-04-23T05:54:43;19.30;;;12.13;;
7195;SDS011;3639;51.308;5.624;2023-04-23T05:57:09;20.70;;;11.70;;
7195;SDS011;3639;51.308;5.624;2023-04-23T05:59:35;19.37;;;12.03;;
7195;SDS011;3639;51.308;5.624;2023-04-23T06:02:01;17.57;;;11.57;;
7195;SDS011;3639;51.308;5.624;2023-04-23T06:04:27;19.30;;;11.40;;
7195;SDS011;3639;51.308;5.624;2023-04-23T06:06:52;18.00;;;11.23;;
7195;SDS011;3639;51.308;5.624;2023-04-23T06:09:18;17.80;;;10.20;;
7195;SDS011;3639;51.308;5.624;2023-04-23T06:11:44;18.73;;;10.30;;
7195;SDS011;3639;51.308;5.624;2023-04-23T06:14:10;18.00;;;11.43;;
7195;SDS011;3639;51.308;5.624;2023-04-23T06:16:35;15.73;;;9.57;;
7195;SDS011;3639;51.308;5.624;2023-04-23T06:19:02;16.43;;;11.20;;
7195;SDS011;3639;51.308;5.624;2023-04-23T06:21:27;15.77;;;9.67;;
7195;SDS011;3639;51.308;5.624;2023-04-23T06:23:53;15.43;;;8.63;;
7195;SDS011;3639;51.308;5.624;2023-04-23T06:26:19;13.53;;;8.63;;
7195;SDS011;3639;51.308;5.624;2023-04-23T06:28:44;13.10;;;7.83;;
7195;SDS011;3639;51.308;5.624;2023-04-23T06:31:11;10.73;;;7.37;;
7195;SDS011;3639;51.308;5.624;2023-04-23T06:33:37;14.43;;;7.50;;
7195;SDS011;3639;51.308;5.624;2023-04-23T06:36:03;10.83;;;7.10;;
7195;SDS011;3639;51.308;5.624;2023-04-23T06:38:30;10.30;;;6.73;;
7195;SDS011;3639;51.308;5.624;2023-04-23T06:40:55;9.77;;;6.30;;
7195;SDS011;3639;51.308;5.624;2023-04-23T06:43:21;9.53;;;7.33;;
7195;SDS011;3639;51.308;5.624;2023-04-23T06:45:47;10.17;;;6.80;;
7195;SDS011;3639;51.308;5.624;2023-04-23T06:48:13;10.50;;;6.80;;
7195;SDS011;3639;51.308;5.624;2023-04-23T06:50:40;6.83;;;5.60;;
7195;SDS011;3639;51.308;5.624;2023-04-23T06:53:05;7.93;;;5.60;;
7195;SDS011;3639;51.308;5.624;2023-04-23T06:55:31;9.63;;;6.00;;
7195;SDS011;3639;51.308;5.624;2023-04-23T06:57:57;9.90;;;6.20;;
7195;SDS011;3639;51.308;5.624;2023-04-23T07:00:23;7.77;;;4.77;;
7195;SDS011;3639;51.308;5.624;2023-04-23T07:02:48;8.00;;;5.50;;
7195;SDS011;3639;51.308;5.624;2023-04-23T07:05:15;8.53;;;5.57;;
7195;SDS011;3639;51.308;5.624;2023-04-23T07:07:41;11.23;;;4.57;;
7195;SDS011;3639;51.308;5.624;2023-04-23T07:10:07;11.70;;;5.17;;
7195;SDS011;3639;51.308;5.624;2023-04-23T07:12:35;7.37;;;4.60;;
7195;SDS011;3639;51.308;5.624;2023-04-23T07:15:01;6.10;;;4.33;;
7195;SDS011;3639;51.308;5.624;2023-04-23T07:17:28;7.17;;;4.77;;
7195;SDS011;3639;51.308;5.624;2023-04-23T07:19:53;6.63;;;4.03;;
7195;SDS011;3639;51.308;5.624;2023-04-23T07:22:19;5.57;;;4.50;;
7195;SDS011;3639;51.308;5.624;2023-04-23T07:24:45;6.47;;;3.77;;
7195;SDS011;3639;51.308;5.624;2023-04-23T07:27:10;10.03;;;4.50;;
7195;SDS011;3639;51.308;5.624;2023-04-23T07:29:36;7.83;;;4.57;;
7195;SDS011;3639;51.308;5.624;2023-04-23T07:32:01;6.47;;;4.20;;
7195;SDS011;3639;51.308;5.624;2023-04-23T07:34:27;4.83;;;4.30;;
7195;SDS011;3639;51.308;5.624;2023-04-23T07:36:53;5.23;;;3.53;;
7195;SDS011;3639;51.308;5.624;2023-04-23T07:39:20;6.13;;;3.80;;
7195;SDS011;3639;51.308;5.624;2023-04-23T07:41:46;9.87;;;3.50;;
7195;SDS011;3639;51.308;5.624;2023-04-23T07:44:11;10.10;;;3.90;;
7195;SDS011;3639;51.308;5.624;2023-04-23T07:46:37;8.57;;;4.60;;
7195;SDS011;3639;51.308;5.624;2023-04-23T07:49:03;7.93;;;3.80;;
7195;SDS011;3639;51.308;5.624;2023-04-23T07:51:29;5.40;;;2.70;;
7195;SDS011;3639;51.308;5.624;2023-04-23T07:53:56;7.57;;;3.13;;
7195;SDS011;3639;51.308;5.624;2023-04-23T07:56:22;6.67;;;3.40;;
7195;SDS011;3639;51.308;5.624;2023-04-23T07:58:48;7.10;;;3.20;;
7195;SDS011;3639;51.308;5.624;2023-04-23T08:01:14;8.73;;;3.30;;
7195;SDS011;3639;51.308;5.624;2023-04-23T08:03:40;8.73;;;4.10;;
7195;SDS011;3639;51.308;5.624;2023-04-23T08:06:06;4.07;;;2.87;;
7195;SDS011;3639;51.308;5.624;2023-04-23T08:08:34;5.83;;;3.07;;
7195;SDS011;3639;51.308;5.624;2023-04-23T08:11:00;6.43;;;3.00;;
7195;SDS011;3639;51.308;5.624;2023-04-23T08:13:26;6.10;;;2.67;;
7195;SDS011;3639;51.308;5.624;2023-04-23T08:15:51;5.10;;;2.37;;
7195;SDS011;3639;51.308;5.624;2023-04-23T08:18:17;4.10;;;2.53;;
7195;SDS011;3639;51.308;5.624;2023-04-23T08:20:43;4.00;;;2.50;;
7195;SDS011;3639;51.308;5.624;2023-04-23T08:23:08;8.63;;;2.57;;
7195;SDS011;3639;51.308;5.624;2023-04-23T08:25:34;6.17;;;2.40;;
7195;SDS011;3639;51.308;5.624;2023-04-23T08:28:00;5.40;;;2.37;;
7195;SDS011;3639;51.308;5.624;2023-04-23T08:30:26;4.67;;;2.10;;
7195;SDS011;3639;51.308;5.624;2023-04-23T08:32:52;3.37;;;2.17;;
7195;SDS011;3639;51.308;5.624;2023-04-23T08:35:18;5.40;;;2.30;;
7195;SDS011;3639;51.308;5.624;2023-04-23T08:37:44;3.20;;;2.30;;
7195;SDS011;3639;51.308;5.624;2023-04-23T08:40:10;3.30;;;2.30;;
7195;SDS011;3639;51.308;5.624;2023-04-23T08:42:51;15.67;;;3.50;;
7195;SDS011;3639;51.308;5.624;2023-04-23T08:45:22;10.57;;;2.40;;
7195;SDS011;3639;51.308;5.624;2023-04-23T08:47:48;4.17;;;1.80;;
7195;SDS011;3639;51.308;5.624;2023-04-23T08:50:14;6.27;;;2.10;;
7195;SDS011;3639;51.308;5.624;2023-04-23T08:52:55;2.70;;;2.00;;
7195;SDS011;3639;51.308;5.624;2023-04-23T08:55:22;8.77;;;2.33;;
7195;SDS011;3639;51.308;5.624;2023-04-23T08:57:48;5.27;;;2.10;;
7195;SDS011;3639;51.308;5.624;2023-04-23T09:00:15;3.20;;;1.90;;
7195;SDS011;3639;51.308;5.624;2023-04-23T09:02:43;4.97;;;2.40;;
7195;SDS011;3639;51.308;5.624;2023-04-23T09:05:11;7.50;;;2.37;;
7195;SDS011;3639;51.308;5.624;2023-04-23T09:07:37;5.43;;;2.10;;
7195;SDS011;3639;51.308;5.624;2023-04-23T09:10:04;8.23;;;1.53;;
7195;SDS011;3639;51.308;5.624;2023-04-23T09:12:31;4.73;;;1.93;;
7195;SDS011;3639;51.308;5.624;2023-04-23T09:15:02;3.20;;;1.53;;
7195;SDS011;3639;51.308;5.624;2023-04-23T09:17:34;4.97;;;2.30;;
7195;SDS011;3639;51.308;5.624;2023-04-23T09:20:02;3.27;;;1.87;;
7195;SDS011;3639;51.308;5.624;2023-04-23T09:22:37;5.17;;;1.73;;
7195;SDS011;3639;51.308;5.624;2023-04-23T09:25:04;3.47;;;1.80;;
7195;SDS011;3639;51.308;5.624;2023-04-23T09:27:30;8.07;;;1.60;;
7195;SDS011;3639;51.308;5.624;2023-04-23T09:29:56;3.30;;;1.73;;
7195;SDS011;3639;51.308;5.624;2023-04-23T09:32:32;2.60;;;1.50;;
7195;SDS011;3639;51.308;5.624;2023-04-23T09:35:06;5.27;;;2.23;;
7195;SDS011;3639;51.308;5.624;2023-04-23T09:37:42;4.60;;;2.13;;
7195;SDS011;3639;51.308;5.624;2023-04-23T09:40:12;3.23;;;1.53;;
7195;SDS011;3639;51.308;5.624;2023-04-23T09:42:39;5.93;;;1.60;;
7195;SDS011;3639;51.308;5.624;2023-04-23T09:45:05;3.27;;;2.30;;
7195;SDS011;3639;51.308;5.624;2023-04-23T09:47:33;4.50;;;1.83;;
7195;SDS011;3639;51.308;5.624;2023-04-23T09:50:02;5.07;;;1.50;;
7195;SDS011;3639;51.308;5.624;2023-04-23T09:52:32;6.70;;;2.17;;
7195;SDS011;3639;51.308;5.624;2023-04-23T09:55:00;4.87;;;1.80;;
7195;SDS011;3639;51.308;5.624;2023-04-23T09:57:26;2.60;;;1.90;;
7195;SDS011;3639;51.308;5.624;2023-04-23T09:59:55;2.87;;;1.57;;
7195;SDS011;3639;51.308;5.624;2023-04-23T10:02:25;2.47;;;2.20;;
7195;SDS011;3639;51.308;5.624;2023-04-23T10:04:51;7.88;;;2.20;;
7195;SDS011;3639;51.308;5.624;2023-04-23T10:07:17;4.83;;;2.33;;
7195;SDS011;3639;51.308;5.624;2023-04-23T10:09:44;4.77;;;2.10;;
7195;SDS011;3639;51.308;5.624;2023-04-23T10:12:10;7.63;;;2.10;;
7195;SDS011;3639;51.308;5.624;2023-04-23T10:14:35;3.47;;;2.27;;
7195;SDS011;3639;51.308;5.624;2023-04-23T10:17:03;4.37;;;2.00;;
7195;SDS011;3639;51.308;5.624;2023-04-23T10:19:29;4.33;;;2.80;;
7195;SDS011;3639;51.308;5.624;2023-04-23T10:22:00;2.60;;;1.90;;
7195;SDS011;3639;51.308;5.624;2023-04-23T10:24:33;6.87;;;2.13;;
7195;SDS011;3639;51.308;5.624;2023-04-23T10:27:02;5.30;;;1.90;;
7195;SDS011;3639;51.308;5.624;2023-04-23T10:29:32;3.80;;;1.80;;
7195;SDS011;3639;51.308;5.624;2023-04-23T10:31:59;4.90;;;2.20;;
7195;SDS011;3639;51.308;5.624;2023-04-23T10:34:28;3.27;;;1.87;;
7195;SDS011;3639;51.308;5.624;2023-04-23T10:36:56;5.63;;;1.90;;
7195;SDS011;3639;51.308;5.624;2023-04-23T10:39:31;3.20;;;1.50;;
7195;SDS011;3639;51.308;5.624;2023-04-23T10:41:59;7.23;;;1.90;;
7195;SDS011;3639;51.308;5.624;2023-04-23T10:44:36;3.67;;;1.90;;
7195;SDS011;3639;51.308;5.624;2023-04-23T10:47:02;5.33;;;3.50;;
7195;SDS011;3639;51.308;5.624;2023-04-23T10:49:29;3.43;;;1.90;;
7195;SDS011;3639;51.308;5.624;2023-04-23T10:54:29;2.90;;;1.50;;
7195;SDS011;3639;51.308;5.624;2023-04-23T10:56:57;3.53;;;1.83;;
7195;SDS011;3639;51.308;5.624;2023-04-23T10:59:26;2.40;;;1.97;;
7195;SDS011;3639;51.308;5.624;2023-04-23T11:02:05;4.87;;;1.97;;
7195;SDS011;3639;51.308;5.624;2023-04-23T11:04:32;6.07;;;1.93;;
7195;SDS011;3639;51.308;5.624;2023-04-23T11:07:06;4.63;;;1.83;;
7195;SDS011;3639;51.308;5.624;2023-04-23T11:09:42;4.00;;;1.83;;
7195;SDS011;3639;51.308;5.624;2023-04-23T11:14:48;2.97;;;1.50;;
7195;SDS011;3639;51.308;5.624;2023-04-23T11:17:16;3.77;;;1.87;;
7195;SDS011;3639;51.308;5.624;2023-04-23T11:20:28;1.73;;;1.40;;
7195;SDS011;3639;51.308;5.624;2023-04-23T11:22:38;3.63;;;1.63;;
7195;SDS011;3639;51.308;5.624;2023-04-23T11:25:09;3.30;;;1.87;;
7195;SDS011;3639;51.308;5.624;2023-04-23T11:27:40;3.33;;;1.60;;
7195;SDS011;3639;51.308;5.624;2023-04-23T11:30:10;3.27;;;1.47;;
7195;SDS011;3639;51.308;5.624;2023-04-23T11:32:37;1.93;;;1.30;;
7195;SDS011;3639;51.308;5.624;2023-04-23T11:35:05;2.07;;;1.47;;
7195;SDS011;3639;51.308;5.624;2023-04-23T11:37:37;4.37;;;1.30;;
7195;SDS011;3639;51.308;5.624;2023-04-23T11:40:05;2.27;;;1.67;;
7195;SDS011;3639;51.308;5.624;2023-04-23T11:42:45;4.27;;;1.60;;
7195;SDS011;3639;51.308;5.624;2023-04-23T11:45:27;2.93;;;1.40;;
7195;SDS011;3639;51.308;5.624;2023-04-23T11:47:54;4.73;;;1.97;;
7195;SDS011;3639;51.308;5.624;2023-04-23T11:50:28;6.13;;;1.50;;
7195;SDS011;3639;51.308;5.624;2023-04-23T11:52:55;2.83;;;1.40;;
7195;SDS011;3639;51.308;5.624;2023-04-23T11:55:21;3.23;;;1.30;;
7195;SDS011;3639;51.308;5.624;2023-04-23T11:57:47;5.90;;;1.57;;
7195;SDS011;3639;51.308;5.624;2023-04-23T12:00:15;7.60;;;1.50;;
7195;SDS011;3639;51.308;5.624;2023-04-23T12:02:58;4.20;;;1.47;;
7195;SDS011;3639;51.308;5.624;2023-04-23T12:05:32;1.80;;;1.20;;
7195;SDS011;3639;51.308;5.624;2023-04-23T12:10:46;2.97;;;1.40;;
7195;SDS011;3639;51.308;5.624;2023-04-23T12:13:13;5.17;;;1.50;;
7195;SDS011;3639;51.308;5.624;2023-04-23T12:15:48;4.87;;;1.67;;
7195;SDS011;3639;51.308;5.624;2023-04-23T12:18:16;3.17;;;1.50;;
7195;SDS011;3639;51.308;5.624;2023-04-23T12:20:42;3.17;;;1.70;;
7195;SDS011;3639;51.308;5.624;2023-04-23T12:23:08;5.27;;;1.37;;
7195;SDS011;3639;51.308;5.624;2023-04-23T12:25:34;6.17;;;1.80;;
7195;SDS011;3639;51.308;5.624;2023-04-23T12:28:01;3.07;;;1.40;;
7195;SDS011;3639;51.308;5.624;2023-04-23T12:30:32;3.73;;;1.60;;
7195;SDS011;3639;51.308;5.624;2023-04-23T12:32:59;2.20;;;1.73;;
7195;SDS011;3639;51.308;5.624;2023-04-23T12:35:36;3.43;;;1.30;;
7195;SDS011;3639;51.308;5.624;2023-04-23T12:38:05;2.50;;;1.30;;
7195;SDS011;3639;51.308;5.624;2023-04-23T12:40:31;2.83;;;1.13;;
7195;SDS011;3639;51.308;5.624;2023-04-23T12:42:58;2.63;;;1.30;;
7195;SDS011;3639;51.308;5.624;2023-04-23T12:45:24;3.17;;;1.33;;
7195;SDS011;3639;51.308;5.624;2023-04-23T12:47:49;1.90;;;1.10;;
7195;SDS011;3639;51.308;5.624;2023-04-23T12:50:15;2.93;;;1.40;;
7195;SDS011;3639;51.308;5.624;2023-04-23T12:52:41;2.57;;;1.40;;
7195;SDS011;3639;51.308;5.624;2023-04-23T12:55:07;2.17;;;1.20;;
7195;SDS011;3639;51.308;5.624;2023-04-23T12:57:33;3.70;;;1.23;;
7195;SDS011;3639;51.308;5.624;2023-04-23T12:59:58;1.87;;;1.33;;
7195;SDS011;3639;51.308;5.624;2023-04-23T13:02:24;3.20;;;1.23;;
7195;SDS011;3639;51.308;5.624;2023-04-23T13:04:50;2.80;;;1.17;;
7195;SDS011;3639;51.308;5.624;2023-04-23T13:07:16;3.13;;;1.30;;
7195;SDS011;3639;51.308;5.624;2023-04-23T13:09:41;4.70;;;1.53;;
7195;SDS011;3639;51.308;5.624;2023-04-23T13:12:07;2.07;;;1.20;;
7195;SDS011;3639;51.308;5.624;2023-04-23T13:14:33;2.37;;;1.40;;
7195;SDS011;3639;51.308;5.624;2023-04-23T13:16:58;2.53;;;1.27;;
7195;SDS011;3639;51.308;5.624;2023-04-23T13:19:24;6.10;;;1.20;;
7195;SDS011;3639;51.308;5.624;2023-04-23T13:21:50;4.83;;;1.10;;
7195;SDS011;3639;51.308;5.624;2023-04-23T13:24:16;1.67;;;1.13;;
7195;SDS011;3639;51.308;5.624;2023-04-23T13:26:41;3.37;;;1.10;;
7195;SDS011;3639;51.308;5.624;2023-04-23T13:29:07;2.50;;;1.10;;
7195;SDS011;3639;51.308;5.624;2023-04-23T13:31:32;1.47;;;1.10;;
7195;SDS011;3639;51.308;5.624;2023-04-23T13:33:58;2.90;;;1.27;;
7195;SDS011;3639;51.308;5.624;2023-04-23T13:36:26;3.73;;;1.10;;
7195;SDS011;3639;51.308;5.624;2023-04-23T13:38:52;2.87;;;1.40;;
7195;SDS011;3639;51.308;5.624;2023-04-23T13:41:18;3.70;;;1.30;;
7195;SDS011;3639;51.308;5.624;2023-04-23T13:43:43;3.50;;;1.33;;
7195;SDS011;3639;51.308;5.624;2023-04-23T13:46:09;4.20;;;1.30;;
7195;SDS011;3639;51.308;5.624;2023-04-23T13:48:34;2.70;;;1.20;;
7195;SDS011;3639;51.308;5.624;2023-04-23T13:51:00;4.73;;;1.53;;
7195;SDS011;3639;51.308;5.624;2023-04-23T13:53:26;5.53;;;1.30;;
7195;SDS011;3639;51.308;5.624;2023-04-23T13:55:55;4.20;;;1.40;;
7195;SDS011;3639;51.308;5.624;2023-04-23T13:58:23;2.73;;;1.40;;
7195;SDS011;3639;51.308;5.624;2023-04-23T14:00:49;5.47;;;1.40;;
7195;SDS011;3639;51.308;5.624;2023-04-23T14:03:14;2.43;;;1.30;;
7195;SDS011;3639;51.308;5.624;2023-04-23T14:05:40;2.80;;;1.10;;
7195;SDS011;3639;51.308;5.624;2023-04-23T14:08:06;1.97;;;1.40;;
7195;SDS011;3639;51.308;5.624;2023-04-23T14:10:32;2.13;;;1.23;;
7195;SDS011;3639;51.308;5.624;2023-04-23T14:12:58;3.27;;;1.30;;
7195;SDS011;3639;51.308;5.624;2023-04-23T14:15:24;3.37;;;2.40;;
7195;SDS011;3639;51.308;5.624;2023-04-23T14:17:50;3.17;;;1.30;;
7195;SDS011;3639;51.308;5.624;2023-04-23T14:20:17;1.53;;;1.20;;
7195;SDS011;3639;51.308;5.624;2023-04-23T14:22:47;3.07;;;1.77;;
7195;SDS011;3639;51.308;5.624;2023-04-23T14:25:21;2.10;;;1.20;;
7195;SDS011;3639;51.308;5.624;2023-04-23T14:30:59;6.13;;;3.23;;
7195;SDS011;3639;51.308;5.624;2023-04-23T14:33:25;2.93;;;1.60;;
7195;SDS011;3639;51.308;5.624;2023-04-23T14:35:51;3.67;;;1.50;;
7195;SDS011;3639;51.308;5.624;2023-04-23T14:38:17;2.07;;;1.43;;
7195;SDS011;3639;51.308;5.624;2023-04-23T14:40:43;1.90;;;1.50;;
7195;SDS011;3639;51.308;5.624;2023-04-23T14:43:08;2.33;;;2.10;;
7195;SDS011;3639;51.308;5.624;2023-04-23T14:45:34;8.30;;;7.50;;
7195;SDS011;3639;51.308;5.624;2023-04-23T14:48:00;3.50;;;2.37;;
7195;SDS011;3639;51.308;5.624;2023-04-23T14:50:25;8.73;;;6.03;;
7195;SDS011;3639;51.308;5.624;2023-04-23T14:52:52;2.63;;;2.00;;
7195;SDS011;3639;51.308;5.624;2023-04-23T14:55:19;3.00;;;2.00;;
7195;SDS011;3639;51.308;5.624;2023-04-23T14:57:46;2.80;;;1.70;;
7195;SDS011;3639;51.308;5.624;2023-04-23T15:00:12;3.03;;;1.80;;
7195;SDS011;3639;51.308;5.624;2023-04-23T15:02:39;1.60;;;1.47;;
7195;SDS011;3639;51.308;5.624;2023-04-23T15:05:08;1.77;;;1.43;;
7195;SDS011;3639;51.308;5.624;2023-04-23T15:07:34;2.10;;;1.93;;
7195;SDS011;3639;51.308;5.624;2023-04-23T15:10:04;2.90;;;1.77;;
7195;SDS011;3639;51.308;5.624;2023-04-23T15:12:36;2.20;;;1.47;;